Time;durP1;ratioP1;P1;durP2;ratioP2;P2;SDS_P1;SDS_P2;PMS_P1;PMS_P2;Temp;Humidity;BMP_temperature;BMP_pressure;BME280_temperature;BME280_humidity;BME280_pressure;Samples;Min_cycle;Max_cycle;Signal;HPM_P1;HPM_P2
2023/10/09 00:03:42;;;;;;;6.37;4.97;;;17.90;38.30;;;;;;10425552;28;20225;-77
2023/10/09 00:08:50;;;;;;;8.57;5.40;;;17.80;37.90;;;;;;10429364;28;20229;-77
2023/10/09 00:13:57;;;;;;;6.30;5.07;;;17.80;37.90;;;;;;10429201;28;20769;-77
2023/10/09 00:19:13;;;;;;;6.33;4.97;;;17.80;38.30;;;;;;10425103;28;20253;-77
2023/10/09 00:24:23;;;;;;;6.93;5.70;;;17.90;37.90;;;;;;10426574;28;20647;-76
2023/10/09 00:29:34;;;;;;;5.70;4.70;;;17.90;37.80;;;;;;10430546;28;20310;-75
2023/10/09 00:34:40;;;;;;;8.60;5.27;;;17.90;38.20;;;;;;10432239;28;20217;-75
2023/10/09 00:39:44;;;;;;;5.77;4.73;;;17.90;37.90;;;;;;10415233;28;20319;-75
2023/10/09 00:44:50;;;;;;;8.23;4.97;;;17.90;37.90;;;;;;10428074;28;20213;-75
2023/10/09 00:50:01;;;;;;;5.07;4.43;;;17.90;38.20;;;;;;10434676;28;20244;-74
2023/10/09 00:55:13;;;;;;;6.93;4.20;;;17.90;37.90;;;;;;10430652;28;20221;-75
2023/10/09 01:00:32;;;;;;;6.10;5.10;;;17.80;38.00;;;;;;10430292;28;20340;-75
2023/10/09 01:05:36;;;;;;;9.50;5.10;;;17.80;38.30;;;;;;10426155;28;20283;-75
2023/10/09 01:10:50;;;;;;;7.03;5.00;;;17.70;37.80;;;;;;10423475;28;20217;-78
2023/10/09 01:15:58;;;;;;;7.43;4.60;;;17.70;38.80;;;;;;10426722;28;20237;-77
2023/10/09 01:21:02;;;;;;;7.10;4.20;;;17.60;38.10;;;;;;10426075;28;20229;-76
2023/10/09 01:26:07;;;;;;;5.43;4.87;;;17.50;37.90;;;;;;10426832;28;20231;-76
2023/10/09 01:31:10;;;;;;;8.10;5.10;;;17.40;38.30;;;;;;10431208;28;20231;-76
2023/10/09 01:36:15;;;;;;;5.37;4.20;;;17.30;38.00;;;;;;10429261;28;20700;-76
2023/10/09 01:41:20;;;;;;;10.17;4.77;;;17.20;38.20;;;;;;10417263;28;20261;-77
2023/10/09 01:46:26;;;;;;;7.60;5.00;;;17.10;38.70;;;;;;10426073;28;20229;-76
2023/10/09 01:51:33;;;;;;;6.13;4.43;;;17.10;38.60;;;;;;10441720;28;20312;-77
2023/10/09 01:56:40;;;;;;;8.73;5.00;;;17.10;38.70;;;;;;10444139;28;20315;-78
2023/10/09 02:01:47;;;;;;;7.93;5.53;;;17.00;39.10;;;;;;10430887;28;20223;-78
2023/10/09 02:06:52;;;;;;;6.13;4.90;;;17.00;39.50;;;;;;10436441;28;20231;-76
2023/10/09 02:11:57;;;;;;;6.67;4.77;;;17.00;38.90;;;;;;10439645;28;20726;-76
2023/10/09 02:17:03;;;;;;;8.87;4.93;;;16.90;39.40;;;;;;10434621;28;20237;-76
2023/10/09 02:22:12;;;;;;;7.67;5.00;;;16.90;39.10;;;;;;10431027;28;20346;-76
2023/10/09 02:27:39;;;;;;;5.13;4.53;;;16.90;39.10;;;;;;10430349;28;20242;-78
2023/10/09 02:32:44;;;;;;;6.30;4.53;;;16.90;39.60;;;;;;10434340;28;20213;-74
2023/10/09 02:37:47;;;;;;;6.57;4.77;;;16.80;39.30;;;;;;10433133;28;20252;-77
2023/10/09 02:42:52;;;;;;;7.77;5.10;;;16.80;39.40;;;;;;10443990;28;20225;-77
2023/10/09 02:47:56;;;;;;;5.90;4.93;;;16.80;39.90;;;;;;10431151;28;20793;-78
2023/10/09 02:53:08;;;;;;;8.70;5.30;;;16.80;39.50;;;;;;10432799;28;20746;-74
2023/10/09 02:58:20;;;;;;;6.50;4.50;;;16.80;39.60;;;;;;10429310;28;20590;-75
2023/10/09 03:03:25;;;;;;;6.27;4.40;;;16.80;39.90;;;;;;10428306;28;20232;-74
2023/10/09 03:08:28;;;;;;;6.53;4.87;;;16.80;39.50;;;;;;10433512;28;20252;-74
2023/10/09 03:13:34;;;;;;;5.33;4.37;;;16.80;39.50;;;;;;10433651;28;20247;-76
2023/10/09 03:18:37;;;;;;;6.27;5.03;;;16.80;39.90;;;;;;10436743;28;20719;-74
2023/10/09 03:23:40;;;;;;;6.67;4.70;;;16.80;39.50;;;;;;10435033;28;20233;-74
2023/10/09 03:28:45;;;;;;;7.67;4.97;;;16.80;39.60;;;;;;10437038;28;20947;-74
2023/10/09 03:33:48;;;;;;;5.90;4.57;;;16.70;40.00;;;;;;10431251;28;20744;-75
2023/10/09 03:38:54;;;;;;;7.37;4.67;;;16.60;39.70;;;;;;10435599;28;20225;-74
2023/10/09 03:43:59;;;;;;;7.20;4.87;;;16.50;39.60;;;;;;10437065;28;20320;-77
2023/10/09 03:49:10;;;;;;;10.33;5.57;;;16.50;40.10;;;;;;10432697;28;20315;-77
2023/10/09 03:54:13;;;;;;;7.20;5.50;;;16.50;39.90;;;;;;10435482;28;20256;-74
2023/10/09 03:59:19;;;;;;;8.43;5.43;;;16.40;39.80;;;;;;10435923;28;20316;-75
2023/10/09 04:04:23;;;;;;;7.97;4.83;;;16.40;40.40;;;;;;10436974;28;20228;-75
2023/10/09 04:09:39;;;;;;;9.60;5.37;;;16.40;40.10;;;;;;10431918;28;20302;-75
2023/10/09 04:14:50;;;;;;;8.17;4.90;;;16.30;40.10;;;;;;10429023;28;20217;-75
2023/10/09 04:20:47;;;;;;;7.97;4.80;;;16.30;40.50;;;;;;10426879;28;20317;-74
2023/10/09 04:25:26;;;;;;;6.67;5.20;;;16.20;40.10;;;;;;10425540;28;20217;-75
2023/10/09 04:30:39;;;;;;;8.03;4.90;;;16.20;40.40;;;;;;10426720;28;20735;-76
2023/10/09 04:36:11;;;;;;;7.17;5.07;;;16.10;40.70;;;;;;10427581;28;20718;-75
2023/10/09 04:41:08;;;;;;;8.77;4.70;;;16.10;40.50;;;;;;10423709;28;20315;-78
2023/10/09 04:46:23;;;;;;;7.57;4.67;;;16.10;40.80;;;;;;10437124;28;20787;-78
2023/10/09 04:51:36;;;;;;;10.10;5.07;;;16.00;41.10;;;;;;10431711;28;21000;-75
2023/10/09 04:56:51;;;;;;;11.67;5.07;;;16.00;41.10;;;;;;10431857;28;20307;-75
2023/10/09 05:01:59;;;;;;;7.70;4.90;;;16.00;41.40;;;;;;10432656;28;20235;-75
2023/10/09 05:07:22;;;;;;;8.47;5.07;;;15.90;42.00;;;;;;10429154;28;20228;-74
2023/10/09 05:12:28;;;;;;;10.57;5.03;;;15.90;41.60;;;;;;10431863;28;20222;-74
2023/10/09 05:17:34;;;;;;;10.33;5.03;;;16.00;41.70;;;;;;10426582;28;20633;-75
2023/10/09 05:22:37;;;;;;;9.37;5.00;;;16.00;42.30;;;;;;10425171;28;20754;-74
2023/10/09 05:27:50;;;;;;;7.60;4.63;;;16.00;41.90;;;;;;10430506;28;20221;-75
2023/10/09 05:32:59;;;;;;;6.93;4.50;;;16.00;42.00;;;;;;10426503;28;20236;-75
2023/10/09 05:38:15;;;;;;;11.17;5.10;;;16.10;42.80;;;;;;10431320;28;20229;-75
2023/10/09 06:04:55;;;;;;;10.63;4.57;;;16.70;43.20;;;;;;10506184;27;20223;-71
2023/10/09 06:10:10;;;;;;;7.40;4.40;;;16.80;42.80;;;;;;10505509;27;20225;-72
2023/10/09 06:15:50;;;;;;;10.17;4.23;;;16.90;42.70;;;;;;10499428;27;20214;-72
2023/10/09 06:21:09;;;;;;;11.73;4.30;;;17.00;43.10;;;;;;10479238;27;20229;-72
2023/10/09 06:26:24;;;;;;;7.70;3.93;;;17.20;42.80;;;;;;10495496;27;20219;-72
2023/10/09 06:31:56;;;;;;;9.50;4.50;;;17.40;42.90;;;;;;10501646;27;20228;-73
2023/10/09 06:36:53;;;;;;;8.53;4.23;;;17.50;43.10;;;;;;10487515;28;20225;-72
2023/10/09 06:42:09;;;;;;;9.73;3.97;;;17.70;42.70;;;;;;10472709;28;20668;-73
2023/10/09 06:47:14;;;;;;;11.40;4.07;;;17.90;42.60;;;;;;10462627;28;20298;-73
2023/10/09 06:52:56;;;;;;;9.40;4.00;;;18.10;42.60;;;;;;10462295;28;20224;-73
2023/10/09 06:57:48;;;;;;;10.40;4.10;;;18.40;42.40;;;;;;10459222;28;20715;-73
2023/10/09 07:02:53;;;;;;;9.90;3.77;;;18.60;42.10;;;;;;10460073;28;20835;-73
2023/10/09 07:08:28;;;;;;;10.57;4.20;;;18.90;41.70;;;;;;10451157;28;20228;-73
2023/10/09 07:13:24;;;;;;;10.20;3.50;;;19.10;41.70;;;;;;10437429;28;20228;-73
2023/10/09 07:18:49;;;;;;;10.17;3.53;;;19.30;41.20;;;;;;10433616;28;20243;-73
2023/10/09 07:23:56;;;;;;;7.53;3.77;;;19.50;41.00;;;;;;10464072;28;20729;-73
2023/10/09 07:29:15;;;;;;;11.50;4.03;;;19.60;40.70;;;;;;10442980;28;20209;-73
2023/10/09 07:34:52;;;;;;;9.17;3.97;;;19.80;40.40;;;;;;10467619;28;20220;-73
2023/10/09 07:39:58;;;;;;;8.53;3.50;;;19.90;40.10;;;;;;10471422;28;20282;-73
2023/10/09 07:45:12;;;;;;;7.87;3.80;;;20.00;40.00;;;;;;10473794;28;20596;-73
2023/10/09 07:50:21;;;;;;;6.93;3.07;;;20.10;39.90;;;;;;10443936;28;20312;-73
2023/10/09 07:55:29;;;;;;;6.73;3.43;;;20.10;39.90;;;;;;10426305;28;20225;-74
2023/10/09 08:01:05;;;;;;;12.23;3.50;;;20.20;39.90;;;;;;10430747;28;20237;-74
2023/10/09 08:06:29;;;;;;;10.80;5.17;;;20.30;39.70;;;;;;10429118;28;20240;-74
2023/10/09 08:11:59;;;;;;;7.83;3.93;;;20.30;39.60;;;;;;10434156;28;20217;-74
2023/10/09 08:17:11;;;;;;;8.50;3.93;;;20.30;39.50;;;;;;10429072;28;20241;-75
2023/10/09 08:22:42;;;;;;;11.40;3.67;;;20.40;39.40;;;;;;10469480;28;20320;-74
2023/10/09 08:27:54;;;;;;;10.93;4.00;;;20.40;39.40;;;;;;10473835;28;20235;-74
2023/10/09 08:33:05;;;;;;;9.40;3.93;;;20.50;39.60;;;;;;10469854;28;20230;-74
2023/10/09 08:38:12;;;;;;;9.57;3.80;;;20.50;39.50;;;;;;10461921;28;20240;-74
2023/10/09 08:43:17;;;;;;;8.60;3.10;;;20.50;39.50;;;;;;10449321;28;20237;-74
2023/10/09 08:48:22;;;;;;;10.27;3.87;;;20.60;39.60;;;;;;10441378;28;20230;-74
2023/10/09 08:53:27;;;;;;;11.97;3.70;;;20.70;39.60;;;;;;10440491;28;20650;-74
2023/10/09 08:58:36;;;;;;;7.33;3.30;;;20.80;39.00;;;;;;10430034;28;20260;-74
2023/10/09 09:03:43;;;;;;;10.07;3.67;;;20.90;39.20;;;;;;10436475;28;20289;-74
2023/10/09 09:08:48;;;;;;;8.83;3.67;;;21.00;39.20;;;;;;10474496;28;20319;-73
2023/10/09 09:14:04;;;;;;;8.77;3.50;;;21.00;38.70;;;;;;10476533;28;20315;-74
2023/10/09 09:19:18;;;;;;;12.07;4.03;;;21.10;38.20;;;;;;10461623;28;20231;-73
2023/10/09 09:24:33;;;;;;;10.93;4.00;;;21.20;38.30;;;;;;10455279;28;20236;-74
2023/10/09 09:29:52;;;;;;;10.63;3.73;;;21.20;38.30;;;;;;10467612;28;20647;-74
2023/10/09 09:34:56;;;;;;;12.17;3.53;;;21.30;38.10;;;;;;10458626;28;20668;-74
2023/10/09 09:40:14;;;;;;;6.70;3.20;;;21.30;38.40;;;;;;10462801;28;20321;-73
2023/10/09 09:45:23;;;;;;;10.70;3.53;;;21.40;38.10;;;;;;10449226;28;20213;-73
2023/10/09 09:50:29;;;;;;;6.80;3.03;;;21.50;38.20;;;;;;10463037;28;20228;-74
2023/10/09 09:55:35;;;;;;;8.30;3.47;;;21.60;38.40;;;;;;10458039;28;20224;-76
2023/10/09 10:00:43;;;;;;;8.27;3.47;;;21.60;37.90;;;;;;10454812;28;20596;-73
2023/10/09 10:05:49;;;;;;;10.23;3.57;;;21.70;38.00;;;;;;10427812;28;20225;-73
2023/10/09 10:10:57;;;;;;;6.53;3.37;;;21.70;38.00;;;;;;10417882;28;20236;-75
2023/10/09 10:16:13;;;;;;;12.10;3.53;;;21.80;38.00;;;;;;10450065;28;20736;-72
2023/10/09 10:21:29;;;;;;;9.23;3.70;;;21.90;37.70;;;;;;10420213;28;20224;-72
2023/10/09 10:26:34;;;;;;;6.43;3.43;;;22.00;38.30;;;;;;10420553;28;20239;-72
2023/10/09 10:31:54;;;;;;;10.13;3.20;;;22.10;37.50;;;;;;10424206;28;20217;-72
2023/10/09 10:37:01;;;;;;;10.50;3.47;;;22.20;38.00;;;;;;10437295;28;20236;-71
2023/10/09 10:42:09;;;;;;;10.77;3.40;;;22.30;38.50;;;;;;10433243;28;20224;-72
2023/10/09 10:47:24;;;;;;;8.23;3.47;;;22.40;37.50;;;;;;10421500;28;20221;-72
2023/10/09 10:52:41;;;;;;;6.93;3.30;;;22.50;37.40;;;;;;10464154;28;20713;-72
2023/10/09 10:58:09;;;;;;;9.10;3.50;;;22.50;37.40;;;;;;10448103;28;20870;-74
2023/10/09 11:03:24;;;;;;;9.60;3.63;;;22.60;36.60;;;;;;10442384;28;20335;-74
2023/10/09 11:08:33;;;;;;;11.27;3.53;;;22.70;36.40;;;;;;10423745;28;20228;-73
2023/10/09 11:13:52;;;;;;;11.90;3.90;;;22.70;36.70;;;;;;10424622;28;20236;-73
2023/10/09 11:18:57;;;;;;;10.50;3.57;;;22.80;36.50;;;;;;10432697;28;20315;-72
2023/10/09 11:24:23;;;;;;;9.33;3.37;;;22.70;36.70;;;;;;10428278;28;20256;-72
2023/10/09 11:29:52;;;;;;;8.43;3.30;;;22.90;37.00;;;;;;10440217;28;20319;-71
2023/10/09 11:35:11;;;;;;;7.53;3.30;;;22.90;36.60;;;;;;10437978;28;20278;-71
2023/10/09 11:40:47;;;;;;;8.10;3.37;;;23.00;36.00;;;;;;10434174;28;20752;-71
2023/10/09 11:45:56;;;;;;;8.03;3.47;;;23.20;35.90;;;;;;10455682;28;20225;-71
2023/10/09 11:56:19;;;;;;;9.53;3.30;;;23.20;35.80;;;;;;10477270;28;20306;-71
2023/10/09 12:01:26;;;;;;;9.30;3.90;;;23.20;35.40;;;;;;10471529;28;20311;-71
2023/10/09 12:06:32;;;;;;;10.83;3.40;;;23.20;34.80;;;;;;10448126;28;20303;-71
2023/10/09 12:11:36;;;;;;;11.37;3.50;;;23.20;35.50;;;;;;10431003;28;20244;-73
2023/10/09 12:16:49;;;;;;;10.53;3.70;;;23.20;35.40;;;;;;10448430;28;20233;-73
2023/10/09 12:21:54;;;;;;;10.17;3.70;;;23.10;34.80;;;;;;10424094;28;20239;-72
2023/10/09 12:26:57;;;;;;;12.40;4.10;;;23.10;35.00;;;;;;10434043;28;20336;-72
2023/10/09 12:32:03;;;;;;;9.83;3.47;;;23.00;35.40;;;;;;10437892;28;20316;-73
2023/10/09 12:37:06;;;;;;;11.97;4.10;;;23.00;35.90;;;;;;10456130;28;20216;-73
2023/10/09 12:42:11;;;;;;;12.33;4.10;;;23.00;35.90;;;;;;10464503;28;20282;-74
2023/10/09 12:47:18;;;;;;;10.37;3.60;;;22.80;35.80;;;;;;10465967;28;20590;-72
2023/10/09 12:52:29;;;;;;;12.47;3.17;;;22.70;35.70;;;;;;10418570;28;20732;-73
2023/10/09 12:57:33;;;;;;;14.27;4.97;;;22.60;35.90;;;;;;10417961;28;20228;-72
2023/10/09 13:02:43;;;;;;;14.20;4.47;;;22.50;36.00;;;;;;10450880;28;20230;-71
2023/10/09 13:07:46;;;;;;;10.87;3.60;;;22.50;35.70;;;;;;10419764;28;20225;-72
2023/10/09 13:12:55;;;;;;;9.23;3.30;;;22.50;36.10;;;;;;10423666;28;20308;-71
2023/10/09 13:18:00;;;;;;;10.07;3.43;;;22.50;36.00;;;;;;10436044;28;20339;-72
2023/10/09 13:23:03;;;;;;;10.20;4.13;;;22.60;35.80;;;;;;10409712;28;20268;-73
2023/10/09 13:28:07;;;;;;;12.53;3.80;;;22.60;35.90;;;;;;10407549;28;21220;-73
2023/10/09 13:33:16;;;;;;;9.63;3.47;;;22.70;36.10;;;;;;10420617;28;20248;-73
2023/10/09 13:38:20;;;;;;;11.57;3.60;;;22.70;36.10;;;;;;10448162;28;20335;-73
2023/10/09 13:43:25;;;;;;;12.60;4.20;;;22.60;36.10;;;;;;10410504;28;20232;-73
2023/10/09 13:48:37;;;;;;;11.23;3.70;;;22.60;36.20;;;;;;10410395;28;20260;-74
2023/10/09 13:53:45;;;;;;;10.67;3.50;;;22.60;36.00;;;;;;10428491;28;20319;-74
2023/10/09 13:58:50;;;;;;;11.70;4.13;;;22.60;36.40;;;;;;10440812;28;21079;-74
2023/10/09 14:03:56;;;;;;;14.00;3.67;;;22.60;36.30;;;;;;10422379;28;20629;-74
2023/10/09 14:09:05;;;;;;;10.07;3.47;;;22.70;36.00;;;;;;10430988;28;20229;-74
2023/10/09 14:14:09;;;;;;;10.50;3.93;;;22.80;35.90;;;;;;10415632;28;20229;-73
2023/10/09 14:19:20;;;;;;;14.43;3.57;;;22.80;36.00;;;;;;10440897;28;20216;-73
2023/10/09 14:24:32;;;;;;;11.20;3.70;;;22.80;35.60;;;;;;10427722;28;20730;-74
2023/10/09 14:29:37;;;;;;;10.13;4.03;;;22.80;35.80;;;;;;10462955;28;20228;-74
2023/10/09 14:34:46;;;;;;;11.30;3.67;;;22.80;35.70;;;;;;10464012;28;20406;-74
2023/10/09 14:39:50;;;;;;;14.03;3.63;;;22.80;35.40;;;;;;10467050;28;20257;-75
2023/10/09 14:44:55;;;;;;;9.50;3.57;;;22.80;35.50;;;;;;10464837;28;20376;-75
2023/10/09 14:50:01;;;;;;;10.30;3.47;;;22.80;35.40;;;;;;10433890;28;20229;-75
2023/10/09 14:55:05;;;;;;;12.03;3.53;;;22.80;35.30;;;;;;10441419;28;20327;-74
2023/10/09 15:00:15;;;;;;;12.20;3.27;;;22.80;35.50;;;;;;10435304;28;21056;-75
2023/10/09 15:05:22;;;;;;;7.10;3.30;;;22.80;35.20;;;;;;10469404;28;20221;-75
2023/10/09 15:10:28;;;;;;;10.57;3.70;;;22.80;34.90;;;;;;10471786;28;20277;-74
2023/10/09 15:15:33;;;;;;;6.70;3.63;;;22.80;35.10;;;;;;10470226;28;20256;-72
2023/10/09 15:20:38;;;;;;;13.60;3.70;;;22.80;35.00;;;;;;10444205;28;20240;-73
2023/10/09 15:25:45;;;;;;;9.67;3.73;;;22.80;34.90;;;;;;10444548;28;20706;-73
2023/10/09 15:30:49;;;;;;;8.97;3.20;;;22.90;35.20;;;;;;10437517;28;20274;-73
2023/10/09 15:35:54;;;;;;;8.17;3.57;;;22.90;34.90;;;;;;10462254;28;20228;-73
2023/10/09 15:41:00;;;;;;;9.40;3.80;;;22.90;34.20;;;;;;10452126;28;20676;-73
2023/10/09 15:46:04;;;;;;;10.13;4.00;;;22.90;34.50;;;;;;10439426;28;20225;-73
2023/10/09 15:51:14;;;;;;;7.17;3.67;;;22.90;34.30;;;;;;10471635;28;20351;-73
2023/10/09 15:56:17;;;;;;;10.70;3.67;;;22.90;33.40;;;;;;10450408;28;20307;-73
2023/10/09 16:01:22;;;;;;;10.33;3.87;;;22.90;34.00;;;;;;10427294;28;20300;-73
2023/10/09 16:06:31;;;;;;;11.90;3.87;;;22.90;33.90;;;;;;10441137;28;20267;-73
2023/10/09 16:11:34;;;;;;;11.87;4.13;;;23.00;34.00;;;;;;10433174;28;20650;-73
2023/10/09 16:16:41;;;;;;;9.77;3.80;;;22.90;34.00;;;;;;10432175;28;20236;-73
2023/10/09 16:21:46;;;;;;;12.23;4.20;;;22.90;34.00;;;;;;10452431;28;20260;-73
2023/10/09 16:26:51;;;;;;;9.40;3.53;;;22.80;33.90;;;;;;10446971;28;20328;-72
2023/10/09 16:31:55;;;;;;;13.07;3.90;;;22.70;34.10;;;;;;10470219;28;20232;-72
2023/10/09 16:37:00;;;;;;;10.30;4.23;;;22.70;34.30;;;;;;10466140;28;20774;-73
2023/10/09 16:42:04;;;;;;;7.67;4.00;;;22.60;33.80;;;;;;10441562;28;20232;-73
2023/10/09 16:47:08;;;;;;;9.10;3.57;;;22.70;34.30;;;;;;10434221;28;20245;-73
2023/10/09 16:52:16;;;;;;;9.40;4.57;;;22.70;34.30;;;;;;10457155;28;20345;-73
2023/10/09 16:57:19;;;;;;;12.30;3.70;;;22.80;34.80;;;;;;10471978;28;20315;-73
2023/10/09 17:02:23;;;;;;;9.67;3.47;;;22.80;34.00;;;;;;10436905;28;20240;-73
2023/10/09 17:07:28;;;;;;;8.57;3.33;;;22.90;34.10;;;;;;10449411;28;20229;-73
2023/10/09 17:12:31;;;;;;;10.23;3.80;;;22.90;33.80;;;;;;10429423;28;20328;-74
2023/10/09 17:17:34;;;;;;;10.53;3.60;;;22.90;33.80;;;;;;10428846;28;20225;-73
2023/10/09 17:22:39;;;;;;;8.50;3.80;;;22.90;33.90;;;;;;10427318;28;20229;-74
2023/10/09 17:27:42;;;;;;;9.37;3.53;;;22.90;33.80;;;;;;10433334;28;20237;-73
2023/10/09 17:32:46;;;;;;;9.87;3.63;;;23.00;34.00;;;;;;10424056;28;20228;-73
2023/10/09 17:37:51;;;;;;;6.97;3.67;;;22.90;33.90;;;;;;10439318;28;20240;-73
2023/10/09 17:42:55;;;;;;;6.97;3.10;;;23.00;33.80;;;;;;10455861;28;20287;-73
2023/10/09 17:48:05;;;;;;;11.87;3.60;;;22.90;33.80;;;;;;10429991;28;20233;-73
2023/10/09 17:53:10;;;;;;;8.50;3.50;;;23.00;33.90;;;;;;10431563;28;20715;-73
2023/10/09 17:58:16;;;;;;;8.73;3.73;;;22.90;33.70;;;;;;10461498;28;20305;-73
2023/10/09 18:03:20;;;;;;;10.63;3.50;;;22.90;33.80;;;;;;10473752;28;20227;-73
2023/10/09 18:08:25;;;;;;;10.97;3.87;;;22.90;33.80;;;;;;10471319;28;20255;-73
2023/10/09 18:13:29;;;;;;;11.17;3.93;;;22.90;33.80;;;;;;10462987;28;20330;-73
2023/10/09 18:18:33;;;;;;;7.50;3.47;;;22.90;34.00;;;;;;10439565;28;20225;-73
2023/10/09 18:23:44;;;;;;;10.27;4.23;;;22.80;33.80;;;;;;10440838;28;20220;-73
2023/10/09 18:28:47;;;;;;;13.97;4.30;;;22.70;33.90;;;;;;10440006;28;20217;-74
2023/10/09 18:33:52;;;;;;;9.67;4.40;;;22.60;33.90;;;;;;10444321;28;20714;-73
2023/10/09 18:38:58;;;;;;;8.87;4.20;;;22.60;34.10;;;;;;10420665;28;20234;-74
2023/10/09 18:44:04;;;;;;;5.43;3.47;;;22.50;34.20;;;;;;10423711;28;20236;-74
2023/10/09 18:49:09;;;;;;;15.90;4.30;;;22.40;35.00;;;;;;10421256;28;20217;-73
2023/10/09 18:54:14;;;;;;;10.50;3.57;;;22.40;34.30;;;;;;10417931;28;20229;-74
2023/10/09 18:59:23;;;;;;;8.17;3.87;;;22.40;34.40;;;;;;10434888;28;20343;-72
2023/10/09 19:04:26;;;;;;;6.43;3.63;;;22.40;34.30;;;;;;10473044;28;20313;-73
2023/10/09 19:09:31;;;;;;;9.73;3.80;;;22.40;34.30;;;;;;10477116;28;20224;-74
2023/10/09 19:14:34;;;;;;;8.27;3.43;;;22.40;34.40;;;;;;10487657;28;20653;-74
2023/10/09 19:19:39;;;;;;;6.57;3.50;;;22.40;34.40;;;;;;10454714;28;20248;-74
2023/10/09 19:24:45;;;;;;;5.93;3.77;;;22.30;34.40;;;;;;10480862;28;20863;-73
2023/10/09 19:29:48;;;;;;;8.30;3.83;;;22.30;34.60;;;;;;10476263;28;20299;-74
2023/10/09 19:34:51;;;;;;;9.40;4.20;;;22.30;34.60;;;;;;10449801;28;20255;-74
2023/10/09 19:39:56;;;;;;;9.70;4.43;;;22.20;34.60;;;;;;10435540;28;20264;-74
2023/10/09 19:44:59;;;;;;;8.93;4.33;;;22.00;34.80;;;;;;10431610;28;20232;-74
2023/10/09 19:50:04;;;;;;;10.43;4.73;;;21.90;35.00;;;;;;10447085;28;20713;-74
2023/10/09 19:55:10;;;;;;;8.00;4.10;;;21.80;35.00;;;;;;10439877;28;20235;-73
2023/10/09 20:00:21;;;;;;;10.33;4.63;;;21.80;35.30;;;;;;10453631;28;20755;-74
2023/10/09 20:05:27;;;;;;;8.87;4.00;;;21.80;35.30;;;;;;10442774;28;20635;-74
2023/10/09 20:10:32;;;;;;;8.47;4.60;;;21.70;35.20;;;;;;10454589;28;20897;-74
2023/10/09 20:15:35;;;;;;;8.60;4.17;;;21.50;35.70;;;;;;10450716;28;20989;-74
2023/10/09 20:20:39;;;;;;;11.87;4.93;;;21.50;35.70;;;;;;10450404;28;20816;-74
2023/10/09 20:25:45;;;;;;;9.37;4.83;;;21.50;35.90;;;;;;10466478;28;20308;-74
2023/10/09 20:30:52;;;;;;;9.20;4.17;;;21.40;35.90;;;;;;10453084;28;20298;-73
2023/10/09 20:36:03;;;;;;;8.27;4.13;;;21.40;35.80;;;;;;10458972;28;20222;-73
2023/10/09 20:41:08;;;;;;;7.30;4.10;;;21.30;35.90;;;;;;10431947;28;20244;-74
2023/10/09 20:46:12;;;;;;;8.63;4.23;;;21.20;36.20;;;;;;10442166;28;20666;-74
2023/10/09 20:51:16;;;;;;;10.53;4.13;;;21.20;36.10;;;;;;10424017;28;20710;-73
2023/10/09 20:56:22;;;;;;;6.20;3.70;;;21.20;36.50;;;;;;10430610;28;20216;-73
2023/10/09 21:01:25;;;;;;;7.67;3.83;;;21.20;36.50;;;;;;10429586;28;20337;-73
2023/10/09 21:06:28;;;;;;;7.03;3.80;;;21.10;36.40;;;;;;10431490;28;20282;-74
2023/10/09 21:11:33;;;;;;;9.13;3.60;;;21.10;36.40;;;;;;10431869;28;20233;-73
2023/10/09 21:16:36;;;;;;;10.13;3.93;;;21.10;36.70;;;;;;10440598;28;20254;-74
2023/10/09 21:21:41;;;;;;;6.70;4.23;;;21.10;36.50;;;;;;10444444;28;20228;-74
2023/10/09 21:26:45;;;;;;;9.27;4.00;;;21.10;36.60;;;;;;10476428;28;20267;-73
2023/10/09 21:31:49;;;;;;;9.03;4.37;;;21.10;37.00;;;;;;10472380;28;20238;-73
2023/10/09 21:36:53;;;;;;;8.70;4.40;;;21.00;36.60;;;;;;10475272;28;20716;-74
2023/10/09 21:41:58;;;;;;;9.73;4.20;;;21.00;36.70;;;;;;10474914;28;20225;-74
2023/10/09 21:47:01;;;;;;;10.63;4.43;;;20.90;37.10;;;;;;10429551;28;20702;-73
2023/10/09 21:52:04;;;;;;;10.20;4.93;;;20.80;36.80;;;;;;10435772;28;20233;-73
2023/10/09 21:57:09;;;;;;;8.97;5.43;;;20.70;37.10;;;;;;10429640;28;20446;-73
2023/10/09 22:02:13;;;;;;;9.77;5.67;;;20.60;37.00;;;;;;10445721;28;20224;-74
2023/10/09 22:07:21;;;;;;;10.43;6.03;;;20.50;36.90;;;;;;10430254;28;20286;-73
2023/10/09 22:12:39;;;;;;;10.10;6.43;;;20.50;36.90;;;;;;10432544;28;20234;-73
2023/10/09 22:17:44;;;;;;;13.97;6.40;;;20.40;36.90;;;;;;10435631;28;20291;-73
2023/10/09 22:22:48;;;;;;;8.03;5.00;;;20.30;36.80;;;;;;10434430;28;20667;-74
2023/10/09 22:28:02;;;;;;;14.00;5.57;;;20.20;36.70;;;;;;10437411;28;20645;-73
2023/10/09 22:33:12;;;;;;;10.33;5.13;;;20.10;37.40;;;;;;10429498;28;20221;-73
2023/10/09 22:38:16;;;;;;;8.20;4.97;;;20.00;37.30;;;;;;10432728;28;20247;-73
2023/10/09 22:43:23;;;;;;;11.00;4.90;;;19.90;38.10;;;;;;10442120;28;20323;-73
2023/10/09 22:48:27;;;;;;;11.70;5.40;;;19.80;37.60;;;;;;10482346;28;20318;-73
2023/10/09 22:53:37;;;;;;;9.53;4.60;;;19.70;37.40;;;;;;10475029;28;20232;-73
2023/10/09 22:58:50;;;;;;;9.60;4.60;;;19.50;37.70;;;;;;10475721;28;20228;-74
2023/10/09 23:04:16;;;;;;;7.27;4.10;;;19.50;38.40;;;;;;10479573;28;20236;-73
2023/10/09 23:09:30;;;;;;;11.47;4.20;;;19.40;38.30;;;;;;10472654;28;20297;-73
2023/10/09 23:14:36;;;;;;;9.47;4.47;;;19.40;38.20;;;;;;10482829;28;20254;-74
2023/10/09 23:19:44;;;;;;;9.63;4.43;;;19.50;38.70;;;;;;10477717;28;20234;-73
2023/10/09 23:24:52;;;;;;;8.73;4.63;;;19.40;38.10;;;;;;10480413;28;20297;-74
2023/10/09 23:30:05;;;;;;;7.60;4.70;;;19.40;38.40;;;;;;10482391;28;20777;-73
2023/10/09 23:35:09;;;;;;;8.70;4.20;;;19.40;38.70;;;;;;10467007;28;20317;-74
2023/10/09 23:40:15;;;;;;;7.13;4.17;;;19.40;38.40;;;;;;10476122;28;20223;-73
2023/10/09 23:45:20;;;;;;;8.63;4.33;;;19.40;38.40;;;;;;10475896;28;20228;-73
2023/10/09 23:50:24;;;;;;;7.53;4.20;;;19.40;38.80;;;;;;10477471;28;20251;-73
2023/10/09 23:55:31;;;;;;;9.07;4.30;;;19.30;38.40;;;;;;10474225;28;20232;-73
